Benjamin Mena

Recruteur - Universidad de Chile
6 Févr 2028
Dimanche
Processus

Personnalité

Adaptabilité (18) Ambition (19) Controverse (4) Loyauté (10) Pression (12) Professionnalisme (12) Sportivité (8) Tempérament (5)

Profil

Style d'entraînement Démocratique
Diplôme National A
Détermination 6
Gestion des joueurs 9
Motivation 14
Discipline 9
Satisfaction professionnelle
100%
Fatigue
0%
Rôle Recruteur
Salaire 31.3K p/s
Contrat 14.03.2028

Performance

Comportement Bon
Efficacité de l'entraînement
54%
Développement des joueurs
70%
Prévention des blessures
30%
Mise en place tactique
30%

Événements récents

Négociation de contrat entamée maintenant
A participé à une réunion de recrutement maintenant
Négociation de contrat entamée maintenant
Négociation de contrat entamée maintenant
Négociation de contrat entamée maintenant
Négociation de contrat entamée 7j
Négociation de contrat entamée 7j
Négociation de contrat entamée 7j

Suivi en cours

126
Joueur Club Statut Capacité Confiance Observé Dernière observation Dernier vote
Finn Jeltsch VfB Stuttgart Actif 141 / 149 40% 3 21.01.2028 -
Adam Aznou Everton Actif 123 / 144 40% 1 21.01.2028 -
Edvard Pettersen Sandefjord Actif 108 / 113 40% 1 21.01.2028 -
Marlon Torres America de Cali Actif 119 / 123 40% 1 17.01.2028 -
Iván Scarpeta Santa Fe Actif 114 / 110 40% 1 17.01.2028 -
Aarón Quiros Vélez Actif 125 / 125 40% 1 17.01.2028 -
Sebastián Caballero Barranquilla Actif 99 / 104 40% 2 16.01.2028 -
Alpha Touré FC Metz Actif 117 / 134 40% 3 16.01.2028 -
Matteo Palma Udinese Actif 129 / 127 40% 1 16.01.2028 -
Josh King Newcastle United Actif 137 / 146 40% 3 14.01.2028 -
Trey Nyoni Rotherham United Actif 141 / 142 40% 2 14.01.2028 -
Juan Manuel Villalba Tigre Actif 120 / 130 40% 2 14.01.2028 -
Chris Rigg Sunderland Actif 127 / 140 40% 1 13.01.2028 -
Daniel Banjaqui Benfica Actif 118 / 139 40% 1 13.01.2028 -
Omar Bertel America de Cali Actif 121 / 113 40% 1 11.01.2028 -
Mateo Garavito Deportivo Pasto Actif 119 / 117 40% 1 11.01.2028 -
Jorman Campuzano Atletico Nacional Actif 116 / 116 40% 1 11.01.2028 -
Jermein Peña Junior Actif 129 / 133 40% 1 10.01.2028 -
Lucas Carrizo Newell's Old Boys Actif 122 / 127 40% 1 10.01.2028 -
Alejandro Molina Tristán Suárez Actif 116 / 118 40% 1 10.01.2028 -
Josh Acheampong Everton Actif 153 / 143 40% 3 09.01.2028 -
Ivan Giraldo Valencia Actif 131 / 123 40% 1 09.01.2028 -
Matias Siltanen Malmo FF Actif 117 / 139 40% 2 08.01.2028 -
Lucas Bergvall Tottenham Refusé 141 / 165 40% 4 06.01.2028 Refuser
Germán Barbas Burgos Actif 111 / 117 40% 3 06.01.2028 -
Azizbek To'lqinbekov Bunyodkor Actif 88 / 107 40% 1 05.01.2028 -
Matvey Bardachev Zenit Actif 116 / 123 40% 2 04.01.2028 -
Riquelme Thompson-Jones Accrington Stanley Actif 100 / 128 40% 1 03.01.2028 -
Yassir Zabiri Stade Rennais Actif 132 / 145 40% 1 30.11.2027 -
Cheikh Sabaly Vancouver Whitecaps Actif 133 / 132 40% 1 30.11.2027 -
Mateo Cassierra Atlético Mineiro Actif 130 / 132 40% 1 30.11.2027 -
Tommaso Cecotti Carpi Actif 103 / 107 40% 2 25.05.2027 -
Victor Hernandez Santa Fe Actif 117 / 127 40% 2 25.05.2027 -
Alexandro Maidana Eibar Actif 124 / 117 40% 2 24.05.2027 -
Miguel Figueiredo Benfica Actif 116 / 121 40% 2 24.05.2027 -
Zane Albarus Shrewsbury Town Actif 83 / 88 40% 1 24.05.2027 -
Charlie Gray Fleetwood Town Actif 89 / 94 40% 5 20.05.2027 -
Riley Owen Stevenage Actif 111 / 108 40% 2 20.05.2027 -
Kiani Inge Groningen Actif 108 / 120 40% 1 20.05.2027 -
Leandro Martins Benfica Actif 100 / 101 40% 2 14.05.2027 -
Agustín De la Cuesta Racing Actif 106 / 115 40% 3 14.05.2027 -
Martim Cunha Porto Actif 109 / 107 40% 2 08.05.2027 -
Gonçalo Oliveira Benfica Actif 102 / 117 40% 1 08.05.2027 -
Eliás Montiel Borussia Dortmund Actif 134 / 126 40% 1 08.05.2027 -
Pedro Vian Seewald Dolomiti Bellunesi Actif 93 / 90 40% 1 07.05.2027 -
Rhys Chadwick AFC Wimbledon Actif 96 / 96 40% 2 04.05.2027 -
Bongani Jali Free State Stars Actif 104 / 95 40% 3 04.05.2027 -
Pietro Reggiori Pro Patria Actif 91 / 89 40% 2 01.05.2027 -
Maldini Kacurri Grimsby Town Actif 82 / 98 40% 1 01.05.2027 -
Riyad Idrissi Cagliari Actif 119 / 138 40% 1 01.05.2027 -
Kazunari Kita Real Sociedad Actif 108 / 95 40% 1 23.04.2027 -
Ezra Mayers West Ham United Actif 116 / 114 40% 1 23.04.2027 -
Samuele di Benedetto Twente Actif 118 / 130 40% 2 22.04.2027 -
Mpho Khethang FC Diarra Actif 86 / 89 40% 1 21.04.2027 -
Jake Batty Plymouth Argyle Actif 92 / 102 40% 1 21.04.2027 -
Jenson Jones Walsall Actif 103 / 101 40% 1 19.04.2027 -
Tiago Freitas Benfica Actif 99 / 112 40% 1 13.04.2027 -
Bence Dárdai VfL Wolfsburg Actif 128 / 122 40% 1 13.04.2027 -
Jan Bürger Northampton Town Actif 118 / 116 40% 2 11.04.2027 -
David Ozoh Derby County Actif 127 / 130 40% 1 07.04.2027 -
Matvey Kislyak CSKA Moscow Actif 140 / 151 40% 1 07.04.2027 -
Lucas Agazzi Villarreal Actif 112 / 129 40% 2 02.04.2027 -
Caleb Yirenkyi Coventry City Actif 140 / 128 40% 2 30.03.2027 -
Salvador Blopá Sporting CP Actif 111 / 117 40% 1 30.03.2027 -
Moncef Zekri Sporting CP Actif 95 / 100 40% 1 29.03.2027 -
James Dornelly Peterborough United Actif 107 / 108 40% 1 18.03.2027 -
Rivaldo Mkhize Black Aces Actif 94 / 97 40% 1 18.03.2027 -
Sabil Hansen Randers Actif 105 / 115 40% 1 08.03.2027 -
Bernardo Lima Porto Actif 104 / 108 40% 1 01.03.2027 -
Santiago Longo Belgrano Actif 122 / 120 40% 1 30.11.2026 -
Sam Greenwood Bristol City Actif 117 / 121 40% 1 29.11.2026 -
Matías Tagliamonte Racing Club Actif 124 / 113 40% 1 28.11.2026 -
Rodrigo Morínigo Debrecen Actif 108 / 115 40% 1 28.11.2026 -
José Florentín Independiente Rivadavia Actif 125 / 119 40% 1 26.11.2026 -
Franco Ibarra Rosario Central Actif 128 / 129 40% 1 26.11.2026 -
Arijanet Murić Sassuolo Actif 152 / 147 40% 1 25.11.2026 -
Emiliano González Almagro Actif 123 / 119 40% 1 25.11.2026 -
Esteban Obregón Montevideo City Torque Actif 108 / 113 40% 2 24.11.2026 -
Luciano Pereyra AEL Larisa Actif 84 / 102 40% 1 24.11.2026 -
Peter Valjent FK Senica Actif 113 / 132 40% 1 22.11.2026 -
Luciano Cosentino Wanderers Actif 124 / 122 40% 1 20.11.2026 -
Manuel Roffo Hajduk Split Actif 137 / 137 40% 2 16.11.2026 -
Paik Seung-Ho Birmingham Actif 139 / 128 40% 1 16.11.2026 -
Renato Solís Sporting Cristal Actif 117 / 115 40% 1 16.11.2026 -
Justo Giani Umraniyespor Actif 124 / 127 40% 1 13.11.2026 -
Patrick Schulte Columbus Crew Actif 116 / 123 40% 2 10.11.2026 -
Viktor Johansson Stoke City Actif 126 / 133 40% 1 08.11.2026 -
Michael Cooper Sheffield United Actif 129 / 143 40% 1 07.11.2026 -
Sergi Palencia Los Angeles Football Club Actif 129 / 125 40% 1 07.11.2026 -
Teden Mengi Luton Town Actif 117 / 107 40% 1 06.11.2026 -
Dale Taylor Blackpool Actif 112 / 129 40% 1 05.11.2026 -
Jacques Ekomié Wrexham Actif 135 / 132 40% 1 03.11.2026 -
Yhormar Hurtado Lechia Actif 133 / 122 40% 1 02.11.2026 -
Martin Jedlička Banik Ostrava Actif 141 / 120 40% 1 01.11.2026 -
Ştefan Târnovanu CFR Cluj Actif 118 / 135 40% 1 31.10.2026 -
Japhet Sery Larsen Philadelphia Union Actif 117 / 115 40% 1 30.10.2026 -
Mads Hedenstad AGF Actif 129 / 109 40% 1 30.10.2026 -
Matevž Vidovšek Olimpija Ljubljana Actif 108 / 118 40% 1 28.10.2026 -
Rubén Blanco Yokohama F. Marinos Actif 117 / 131 40% 1 27.10.2026 -
Erik Botheim Viking Actif 118 / 124 40% 1 27.10.2026 -
Wendel Zenit Actif 156 / 132 40% 1 24.10.2026 -
Edu Expósito Espanyol Actif 152 / 134 40% 1 23.10.2026 -
Facundo Miño Deportivo Riestra Actif 114 / 121 40% 1 23.10.2026 -
Gaspar Duarte Rosario Central Actif 123 / 112 40% 1 23.10.2026 -
Yuta Goke Vissel Kobe Actif 137 / 118 40% 1 22.10.2026 -
Santiago Rojas Nacional Actif 113 / 112 40% 1 20.10.2026 -
Alexandr Maximenko Spartak Moscow Actif 120 / 135 40% 1 18.10.2026 -
Sławomir Abramowicz Jagiellonia Actif 130 / 127 40% 1 17.10.2026 -
Tomoki Hayakawa Kashima Antlers Actif 142 / 150 40% 1 15.10.2026 -
Paul Izzo Randers Actif 124 / 125 40% 1 11.10.2026 -
Luis Caicedo Spartak 1918 Actif 77 / 106 40% 1 10.10.2026 -
Rhian Brewster Oleksandriya Actif 129 / 129 40% 1 10.10.2026 -
Kai Wagner Philadelphia Union Actif 135 / 129 40% 1 09.10.2026 -
Stijn Spierings Real Salt Lake Actif 121 / 125 40% 1 09.10.2026 -
Fabricio Domínguez Cerro Porteno Actif 118 / 125 40% 1 07.10.2026 -
Keisuke Osako Sanfrecce Hiroshima Actif 140 / 144 40% 1 05.10.2026 -
Patrick Pentz Brondby Actif 140 / 133 40% 1 01.10.2026 -
Nikita Haikin Bodo/Glimt Actif 131 / 147 40% 1 01.10.2026 -
Roman Celentano FC Cincinnati Actif 116 / 109 40% 1 29.09.2026 -
Williams Mabunda Ajax Cape Town Actif 101 / 103 40% 1 25.09.2026 -
Anthony Racioppi Sion Actif 124 / 116 40% 1 25.09.2026 -
Alexander Nübel Besiktas Actif 138 / 155 40% 1 07.09.2026 -
Erison Kawasaki Frontale Actif 133 / 134 40% 1 03.08.2026 -
Germán Berterame Inter Miami CF Refusé 143 / 132 40% 1 03.08.2026 Plus d'infos
Mateu Morey Girona Actif 135 / 134 40% 1 01.08.2026 -
Juan Berrocal Málaga Actif 124 / 133 40% 1 01.08.2026 -